createdAt,value
2023-03-22T00:00:34.825Z,300.00
2023-03-22T00:01:34.822Z,291.00
2023-03-22T00:02:34.847Z,291.00
2023-03-22T00:03:34.762Z,302.00
2023-03-22T00:04:34.736Z,309.00
2023-03-22T00:05:34.729Z,350.00
2023-03-22T00:06:34.687Z,353.00
2023-03-22T00:07:34.707Z,347.00
2023-03-22T00:08:34.685Z,346.00
2023-03-22T00:09:34.655Z,346.00
2023-03-22T00:10:34.635Z,345.00
2023-03-22T00:11:34.643Z,326.00
2023-03-22T00:12:34.688Z,302.00
2023-03-22T00:13:35.739Z,328.00
2023-03-22T00:14:34.581Z,338.00
2023-03-22T00:15:34.576Z,341.00
2023-03-22T00:16:34.579Z,354.00
2023-03-22T00:17:34.629Z,350.00
2023-03-22T00:18:34.548Z,346.00
2023-03-22T00:19:34.544Z,340.00
2023-03-22T00:20:34.497Z,313.00
2023-03-22T00:21:34.505Z,292.00
2023-03-22T00:22:34.477Z,291.00
2023-03-22T00:23:34.583Z,289.00
2023-03-22T00:24:34.452Z,298.00
2023-03-22T00:25:34.482Z,310.00
2023-03-22T00:26:34.442Z,363.00
2023-03-22T00:27:34.435Z,364.00
2023-03-22T00:28:34.410Z,364.00
2023-03-22T00:29:34.386Z,355.00
2023-03-22T00:30:34.376Z,361.00
2023-03-22T00:31:34.429Z,358.00
2023-03-22T00:32:34.684Z,359.00
2023-03-22T00:33:34.368Z,357.00
2023-03-22T00:34:34.670Z,355.00
2023-03-22T00:35:34.337Z,355.00
2023-03-22T00:36:34.340Z,362.00
2023-03-22T00:37:34.336Z,359.00
2023-03-22T00:38:42.058Z,353.00
2023-03-22T00:39:34.297Z,348.00
2023-03-22T00:40:34.277Z,343.00
2023-03-22T00:41:34.266Z,340.00
2023-03-22T00:42:34.229Z,339.00
2023-03-22T00:43:34.222Z,337.00
2023-03-22T00:44:34.228Z,339.00
2023-03-22T00:45:34.180Z,343.00
2023-03-22T00:46:34.218Z,350.00
2023-03-22T00:47:34.174Z,358.00
2023-03-22T00:48:34.260Z,361.00
2023-03-22T00:49:34.160Z,336.00
2023-03-22T00:50:34.142Z,316.00
2023-03-22T00:51:34.138Z,314.00
2023-03-22T00:52:34.097Z,323.00
2023-03-22T00:53:34.078Z,312.00
2023-03-22T00:54:34.106Z,303.00
2023-03-22T00:55:34.067Z,321.00
2023-03-22T00:56:34.075Z,362.00
2023-03-22T00:57:34.070Z,366.00
2023-03-22T00:58:34.027Z,368.00
2023-03-22T00:59:34.027Z,361.00
2023-03-22T01:00:33.991Z,357.00
2023-03-22T01:01:34.040Z,359.00
2023-03-22T01:02:33.977Z,358.00
2023-03-22T01:03:34.019Z,354.00
2023-03-22T01:04:33.947Z,351.00
2023-03-22T01:05:33.934Z,350.00
2023-03-22T01:06:33.916Z,348.00
2023-03-22T01:07:33.935Z,354.00
2023-03-22T01:08:33.900Z,343.00
2023-03-22T01:09:33.905Z,342.00
2023-03-22T01:10:33.883Z,336.00
2023-03-22T01:11:33.855Z,335.00
2023-03-22T01:12:33.846Z,332.00
2023-03-22T01:13:33.853Z,330.00
2023-03-22T01:14:33.800Z,325.00
2023-03-22T01:15:33.787Z,325.00
2023-03-22T01:16:33.826Z,330.00
2023-03-22T01:17:33.751Z,325.00
2023-03-22T01:18:33.771Z,322.00
2023-03-22T01:19:33.753Z,312.00
2023-03-22T01:20:33.740Z,316.00
2023-03-22T01:21:33.772Z,322.00
2023-03-22T01:22:33.704Z,327.00
2023-03-22T01:23:33.698Z,341.00
2023-03-22T01:24:33.713Z,338.00
2023-03-22T01:25:33.647Z,333.00
2023-03-22T01:26:33.632Z,333.00
2023-03-22T01:27:33.654Z,338.00
2023-03-22T01:28:33.648Z,338.00
2023-03-22T01:29:33.604Z,335.00
2023-03-22T01:30:33.651Z,336.00
2023-03-22T01:31:33.582Z,337.00
2023-03-22T01:32:33.578Z,340.00
2023-03-22T01:33:33.568Z,339.00
2023-03-22T01:34:33.578Z,340.00
2023-03-22T01:35:33.531Z,333.00
2023-03-22T01:36:33.517Z,325.00
2023-03-22T01:37:33.486Z,322.00
2023-03-22T01:38:33.549Z,326.00
2023-03-22T01:39:33.510Z,329.00
2023-03-22T01:40:33.484Z,339.00
2023-03-22T01:41:33.450Z,341.00
2023-03-22T01:42:33.463Z,345.00
2023-03-22T01:43:33.407Z,336.00
2023-03-22T01:44:33.410Z,338.00
2023-03-22T01:45:33.382Z,341.00
2023-03-22T01:46:33.558Z,341.00
2023-03-22T01:47:33.393Z,351.00
2023-03-22T01:48:33.366Z,353.00
2023-03-22T01:49:33.335Z,355.00
2023-03-22T01:50:33.320Z,340.00
2023-03-22T01:51:33.342Z,336.00
2023-03-22T01:52:33.340Z,333.00
2023-03-22T01:53:33.336Z,333.00
2023-03-22T01:54:33.265Z,334.00
2023-03-22T01:55:33.262Z,334.00
2023-03-22T01:56:33.283Z,344.00
2023-03-22T01:57:33.241Z,328.00
2023-03-22T01:58:33.241Z,340.00
2023-03-22T01:59:33.215Z,363.00
2023-03-22T02:00:33.201Z,375.00
2023-03-22T02:01:33.201Z,365.00
2023-03-22T02:02:33.213Z,366.00
2023-03-22T02:03:33.182Z,367.00
2023-03-22T02:04:33.129Z,363.00
2023-03-22T02:05:33.136Z,366.00
2023-03-22T02:06:33.107Z,364.00
2023-03-22T02:07:33.122Z,356.00
2023-03-22T02:08:33.083Z,357.00
2023-03-22T02:09:33.077Z,352.00
2023-03-22T02:10:33.090Z,346.00
2023-03-22T02:11:33.053Z,347.00
2023-03-22T02:12:33.033Z,347.00
2023-03-22T02:13:33.031Z,353.00
2023-03-22T02:14:33.027Z,360.00
2023-03-22T02:15:33.090Z,353.00
2023-03-22T02:16:32.980Z,316.00
2023-03-22T02:17:32.970Z,298.00
2023-03-22T02:18:32.998Z,302.00
2023-03-22T02:19:32.945Z,301.00
2023-03-22T02:20:32.941Z,303.00
2023-03-22T02:21:32.935Z,306.00
2023-03-22T02:22:32.913Z,334.00
2023-03-22T02:23:32.869Z,356.00
2023-03-22T02:24:32.916Z,353.00
2023-03-22T02:25:32.861Z,349.00
2023-03-22T02:26:32.871Z,355.00
2023-03-22T02:27:32.838Z,351.00
2023-03-22T02:28:32.888Z,360.00
2023-03-22T02:29:32.837Z,366.00
2023-03-22T02:30:32.807Z,367.00
2023-03-22T02:31:32.846Z,370.00
2023-03-22T02:32:32.766Z,355.00
2023-03-22T02:33:32.776Z,362.00
2023-03-22T02:34:32.758Z,362.00
2023-03-22T02:35:32.821Z,354.00
2023-03-22T02:36:32.738Z,355.00
2023-03-22T02:37:32.736Z,342.00
2023-03-22T02:38:32.680Z,322.00
2023-03-22T02:39:32.672Z,299.00
2023-03-22T02:40:32.692Z,306.00
2023-03-22T02:41:32.676Z,317.00
2023-03-22T02:42:32.644Z,328.00
2023-03-22T02:43:32.646Z,338.00
2023-03-22T02:44:32.628Z,352.00
2023-03-22T02:45:32.623Z,351.00
2023-03-22T02:46:32.587Z,352.00
2023-03-22T02:47:32.580Z,357.00
2023-03-22T02:48:32.572Z,356.00
2023-03-22T02:49:32.522Z,361.00
2023-03-22T02:50:32.579Z,364.00
2023-03-22T02:51:32.531Z,347.00
2023-03-22T02:52:32.522Z,317.00
2023-03-22T02:53:32.483Z,282.00
2023-03-22T02:54:32.497Z,293.00
2023-03-22T02:55:32.477Z,355.00
2023-03-22T02:56:32.440Z,358.00
2023-03-22T02:57:32.480Z,353.00
2023-03-22T02:58:32.424Z,367.00
2023-03-22T02:59:32.390Z,364.00
2023-03-22T03:00:32.463Z,360.00
2023-03-22T03:01:32.383Z,355.00
2023-03-22T03:02:32.375Z,347.00
2023-03-22T03:03:32.367Z,335.00
2023-03-22T03:04:32.354Z,324.00
2023-03-22T03:05:32.335Z,300.00
2023-03-22T03:06:32.309Z,290.00
2023-03-22T03:07:32.325Z,295.00
2023-03-22T03:08:32.304Z,355.00
2023-03-22T03:09:32.279Z,362.00
2023-03-22T03:10:32.273Z,378.00
2023-03-22T03:11:32.464Z,408.00
2023-03-22T03:12:32.232Z,386.00
2023-03-22T03:13:32.236Z,398.00
2023-03-22T03:14:32.230Z,403.00
2023-03-22T03:15:32.221Z,375.00
2023-03-22T03:16:32.224Z,360.00
2023-03-22T03:17:32.192Z,367.00
2023-03-22T03:18:32.175Z,362.00
2023-03-22T03:19:32.179Z,358.00
2023-03-22T03:20:32.144Z,336.00
2023-03-22T03:21:32.113Z,322.00
2023-03-22T03:22:32.122Z,307.00
2023-03-22T03:23:32.126Z,292.00
2023-03-22T03:24:32.144Z,298.00
2023-03-22T03:25:32.105Z,299.00
2023-03-22T03:26:32.091Z,297.00
2023-03-22T03:27:32.073Z,297.00
2023-03-22T03:28:32.022Z,293.00
2023-03-22T03:29:32.038Z,293.00
2023-03-22T03:30:32.005Z,295.00
2023-03-22T03:31:32.052Z,308.00
2023-03-22T03:32:31.974Z,317.00
2023-03-22T03:33:31.966Z,325.00
2023-03-22T03:34:31.960Z,335.00
2023-03-22T03:35:31.975Z,332.00
2023-03-22T03:36:31.956Z,324.00
2023-03-22T03:37:31.987Z,321.00
2023-03-22T03:38:31.917Z,319.00
2023-03-22T03:39:31.898Z,304.00
2023-03-22T03:40:31.921Z,287.00
2023-03-22T03:41:31.849Z,295.00
2023-03-22T03:42:31.859Z,299.00
2023-03-22T03:43:31.844Z,304.00
2023-03-22T03:44:31.810Z,304.00
2023-03-22T03:45:31.835Z,310.00
2023-03-22T03:46:31.838Z,328.00
2023-03-22T03:47:31.791Z,337.00
2023-03-22T03:48:31.763Z,350.00
2023-03-22T03:49:31.877Z,348.00
2023-03-22T03:50:31.751Z,350.00
2023-03-22T03:51:31.739Z,352.00
2023-03-22T03:52:31.767Z,349.00
2023-03-22T03:53:31.756Z,342.00
2023-03-22T03:54:31.700Z,318.00
2023-03-22T03:55:31.692Z,303.00
2023-03-22T03:56:31.684Z,294.00
2023-03-22T03:57:31.665Z,292.00
2023-03-22T03:58:31.672Z,295.00
2023-03-22T03:59:31.626Z,315.00
2023-03-22T04:00:31.641Z,326.00
2023-03-22T04:01:31.589Z,332.00
2023-03-22T04:02:31.659Z,326.00
2023-03-22T04:03:31.589Z,330.00
2023-03-22T04:04:31.589Z,330.00
2023-03-22T04:05:31.557Z,324.00
2023-03-22T04:06:31.526Z,326.00
2023-03-22T04:07:31.598Z,340.00
2023-03-22T04:08:31.514Z,346.00
2023-03-22T04:09:31.518Z,359.00
2023-03-22T04:10:31.508Z,358.00
2023-03-22T04:11:31.462Z,348.00
2023-03-22T04:12:31.452Z,348.00
2023-03-22T04:13:31.458Z,346.00
2023-03-22T04:14:31.447Z,354.00
2023-03-22T04:15:31.480Z,344.00
2023-03-22T04:16:31.461Z,333.00
2023-03-22T04:17:31.400Z,316.00
2023-03-22T04:18:31.430Z,318.00
2023-03-22T04:19:31.384Z,311.00
2023-03-22T04:20:31.376Z,297.00
2023-03-22T04:21:31.341Z,314.00
2023-03-22T04:22:31.358Z,337.00
2023-03-22T04:23:32.496Z,340.00
2023-03-22T04:24:31.293Z,336.00
2023-03-22T04:25:31.272Z,329.00
2023-03-22T04:26:31.327Z,319.00
2023-03-22T04:27:31.289Z,309.00
2023-03-22T04:28:31.293Z,300.00
2023-03-22T04:29:31.224Z,294.00
2023-03-22T04:30:31.247Z,298.00
2023-03-22T04:31:31.287Z,300.00
2023-03-22T04:32:31.201Z,302.00
2023-03-22T04:33:31.167Z,303.00
2023-03-22T04:34:31.187Z,307.00
2023-03-22T04:35:31.212Z,308.00
2023-03-22T04:36:31.185Z,315.00
2023-03-22T04:37:31.151Z,333.00
2023-03-22T04:38:31.113Z,343.00
2023-03-22T04:39:31.091Z,346.00
2023-03-22T04:40:31.101Z,348.00
2023-03-22T04:41:31.100Z,356.00
2023-03-22T04:42:31.086Z,356.00
2023-03-22T04:43:31.050Z,353.00
2023-03-22T04:44:31.333Z,360.00
2023-03-22T04:45:31.143Z,358.00
2023-03-22T04:46:31.189Z,363.00
2023-03-22T04:47:31.265Z,362.00
2023-03-22T04:48:31.012Z,364.00
2023-03-22T04:49:30.972Z,366.00
2023-03-22T04:50:30.974Z,360.00
2023-03-22T04:51:30.938Z,362.00
2023-03-22T04:52:30.953Z,367.00
2023-03-22T04:53:30.925Z,363.00
2023-03-22T04:54:30.944Z,366.00
2023-03-22T04:55:30.912Z,362.00
2023-03-22T04:56:30.934Z,364.00
2023-03-22T04:57:30.852Z,362.00
2023-03-22T04:58:30.864Z,365.00
2023-03-22T04:59:30.848Z,359.00
2023-03-22T05:00:30.825Z,357.00
2023-03-22T05:01:34.006Z,354.00
2023-03-22T05:02:31.898Z,356.00
2023-03-22T05:03:30.777Z,353.00
2023-03-22T05:04:30.787Z,356.00
2023-03-22T05:05:30.755Z,359.00
2023-03-22T05:06:31.102Z,351.00
2023-03-22T05:07:31.260Z,363.00
2023-03-22T05:08:30.758Z,361.00
2023-03-22T05:09:30.718Z,354.00
2023-03-22T05:10:30.734Z,353.00
2023-03-22T05:11:30.686Z,345.00
2023-03-22T05:12:30.661Z,341.00
2023-03-22T05:13:30.815Z,339.00
2023-03-22T05:14:30.839Z,340.00
2023-03-22T05:15:30.716Z,343.00
2023-03-22T05:16:30.771Z,344.00
2023-03-22T05:17:30.678Z,347.00
2023-03-22T05:18:30.726Z,344.00
2023-03-22T05:19:30.654Z,340.00
2023-03-22T05:20:30.585Z,337.00
2023-03-22T05:21:30.538Z,334.00
2023-03-22T05:22:30.552Z,339.00
2023-03-22T05:23:30.585Z,341.00
2023-03-22T05:24:30.510Z,342.00
2023-03-22T05:25:30.501Z,347.00
2023-03-22T05:26:30.484Z,352.00
2023-03-22T05:27:30.479Z,349.00
2023-03-22T05:28:30.486Z,357.00
2023-03-22T05:29:30.463Z,358.00
2023-03-22T05:30:30.466Z,356.00
2023-03-22T05:31:30.462Z,363.00
2023-03-22T05:32:30.428Z,365.00
2023-03-22T05:33:30.418Z,362.00
2023-03-22T05:34:30.401Z,360.00
2023-03-22T05:35:30.408Z,363.00
2023-03-22T05:36:30.363Z,357.00
2023-03-22T05:37:30.377Z,352.00
2023-03-22T05:38:30.332Z,355.00
2023-03-22T05:39:30.348Z,360.00
2023-03-22T05:40:30.356Z,358.00
2023-03-22T05:41:30.306Z,359.00
2023-03-22T05:42:30.266Z,356.00
2023-03-22T05:43:30.269Z,359.00
2023-03-22T05:44:30.247Z,360.00
2023-03-22T05:45:30.238Z,357.00
2023-03-22T05:46:30.304Z,348.00
2023-03-22T05:47:30.234Z,345.00
2023-03-22T05:48:30.211Z,346.00
2023-03-22T05:49:30.265Z,344.00
2023-03-22T05:50:30.229Z,337.00
2023-03-22T05:51:30.256Z,330.00
2023-03-22T05:52:30.284Z,326.00
2023-03-22T05:53:30.187Z,321.00
2023-03-22T05:54:30.202Z,318.00
2023-03-22T05:55:30.165Z,311.00
2023-03-22T05:56:30.173Z,310.00
2023-03-22T05:57:30.153Z,306.00
2023-03-22T05:58:30.111Z,303.00
2023-03-22T05:59:30.128Z,304.00
2023-03-22T06:00:30.064Z,303.00
2023-03-22T06:01:30.069Z,307.00
2023-03-22T06:02:30.032Z,308.00
2023-03-22T06:03:30.085Z,312.00
2023-03-22T06:04:29.978Z,313.00
2023-03-22T06:05:29.981Z,312.00
2023-03-22T06:06:30.100Z,312.00
2023-03-22T06:07:29.981Z,310.00
2023-03-22T06:08:29.976Z,305.00
2023-03-22T06:09:29.945Z,309.00
2023-03-22T06:10:29.933Z,303.00
2023-03-22T06:11:29.914Z,301.00
2023-03-22T06:12:30.291Z,308.00
2023-03-22T06:13:29.926Z,305.00
2023-03-22T06:14:29.869Z,306.00
2023-03-22T06:15:29.864Z,306.00
2023-03-22T06:16:29.884Z,305.00
2023-03-22T06:17:29.837Z,306.00
2023-03-22T06:18:29.797Z,297.00
2023-03-22T06:19:29.831Z,291.00
2023-03-22T06:20:29.789Z,292.00
2023-03-22T06:21:29.800Z,293.00
2023-03-22T06:22:29.781Z,297.00
2023-03-22T06:23:29.755Z,293.00
2023-03-22T06:24:29.773Z,293.00
2023-03-22T06:25:29.750Z,290.00
2023-03-22T06:26:29.701Z,290.00
2023-03-22T06:27:29.689Z,292.00
2023-03-22T06:28:29.735Z,292.00
2023-03-22T06:29:29.697Z,287.00
2023-03-22T06:30:29.689Z,286.00
2023-03-22T06:31:29.648Z,287.00
2023-03-22T06:32:29.662Z,286.00
2023-03-22T06:33:29.607Z,287.00
2023-03-22T06:34:29.655Z,290.00
2023-03-22T06:35:29.589Z,298.00
2023-03-22T06:36:29.554Z,293.00
2023-03-22T06:37:29.561Z,296.00
2023-03-22T06:38:29.526Z,295.00
2023-03-22T06:39:29.557Z,292.00
2023-03-22T06:40:29.516Z,291.00
2023-03-22T06:41:29.495Z,292.00
2023-03-22T06:42:29.500Z,289.00
2023-03-22T06:43:29.485Z,292.00
2023-03-22T06:44:29.468Z,288.00
2023-03-22T06:45:29.432Z,288.00
2023-03-22T06:46:29.588Z,294.00
2023-03-22T06:47:29.447Z,297.00
2023-03-22T06:48:29.447Z,290.00
2023-03-22T06:49:29.426Z,288.00
2023-03-22T06:50:29.414Z,292.00
2023-03-22T06:51:29.379Z,293.00
2023-03-22T06:52:29.356Z,288.00
2023-03-22T06:53:29.328Z,288.00
2023-03-22T06:54:29.345Z,289.00
2023-03-22T06:55:29.328Z,290.00
2023-03-22T06:56:29.335Z,289.00
2023-03-22T06:57:29.281Z,289.00
2023-03-22T06:58:29.284Z,288.00
2023-03-22T06:59:29.269Z,291.00
2023-03-22T07:00:29.253Z,289.00
2023-03-22T07:01:29.299Z,291.00
2023-03-22T07:02:29.236Z,285.00
2023-03-22T07:03:29.231Z,288.00
2023-03-22T07:04:29.247Z,288.00
2023-03-22T07:05:29.177Z,288.00
2023-03-22T07:06:29.189Z,287.00
2023-03-22T07:07:29.207Z,281.00
2023-03-22T07:08:29.156Z,285.00
2023-03-22T07:09:29.150Z,291.00
2023-03-22T07:10:29.102Z,283.00
2023-03-22T07:11:29.157Z,285.00
2023-03-22T07:12:29.116Z,286.00
2023-03-22T07:13:29.125Z,288.00
2023-03-22T07:14:29.086Z,290.00
2023-03-22T07:15:29.095Z,286.00
2023-03-22T07:16:29.150Z,287.00
2023-03-22T07:17:29.035Z,292.00
2023-03-22T07:18:29.069Z,290.00
2023-03-22T07:19:29.063Z,291.00
2023-03-22T07:20:29.052Z,290.00
2023-03-22T07:21:29.092Z,281.00
2023-03-22T07:22:29.011Z,283.00
2023-03-22T07:23:28.941Z,284.00
2023-03-22T07:24:28.967Z,286.00
2023-03-22T07:25:28.961Z,293.00
2023-03-22T07:26:28.991Z,287.00
2023-03-22T07:27:28.926Z,293.00
2023-03-22T07:28:28.878Z,296.00
2023-03-22T07:29:28.882Z,292.00
2023-03-22T07:30:28.869Z,299.00
2023-03-22T07:31:28.917Z,298.00
2023-03-22T07:32:28.935Z,297.00
2023-03-22T07:33:28.853Z,300.00
2023-03-22T07:34:28.789Z,308.00
2023-03-22T07:35:28.825Z,285.00
2023-03-22T07:36:28.756Z,385.00
2023-03-22T07:37:28.773Z,337.00
2023-03-22T07:38:28.876Z,331.00
2023-03-22T07:39:28.807Z,337.00
2023-03-22T07:40:28.728Z,334.00
2023-03-22T07:41:28.739Z,319.00
2023-03-22T07:42:28.751Z,320.00
2023-03-22T07:43:28.690Z,320.00
2023-03-22T07:44:28.656Z,309.00
2023-03-22T07:45:28.807Z,304.00
2023-03-22T07:46:28.727Z,301.00
2023-03-22T07:47:40.317Z,298.00
2023-03-22T07:48:28.733Z,304.00
2023-03-22T07:49:28.597Z,295.00
2023-03-22T07:50:28.653Z,294.00
2023-03-22T07:51:28.586Z,292.00
2023-03-22T07:52:28.593Z,285.00
2023-03-22T07:53:28.609Z,287.00
2023-03-22T07:54:33.832Z,288.00
2023-03-22T07:55:28.562Z,285.00
2023-03-22T07:56:28.553Z,281.00
2023-03-22T07:57:28.511Z,277.00
2023-03-22T07:58:28.504Z,260.00
2023-03-22T07:59:28.553Z,252.00
2023-03-22T08:00:28.442Z,249.00
2023-03-22T08:01:28.468Z,242.00
2023-03-22T08:02:28.471Z,239.00
2023-03-22T08:03:28.521Z,240.00
2023-03-22T08:04:28.430Z,239.00
2023-03-22T08:05:28.410Z,238.00
2023-03-22T08:06:28.395Z,241.00
2023-03-22T08:07:28.484Z,240.00
2023-03-22T08:08:28.391Z,237.00
2023-03-22T08:09:28.346Z,241.00
2023-03-22T08:10:28.401Z,251.00
2023-03-22T08:11:28.353Z,280.00
2023-03-22T08:12:28.307Z,286.00
2023-03-22T08:13:28.328Z,271.00
2023-03-22T08:14:36.195Z,299.00
2023-03-22T08:15:28.319Z,304.00
2023-03-22T08:16:28.344Z,299.00
2023-03-22T08:17:28.232Z,309.00
2023-03-22T08:18:28.248Z,286.00
2023-03-22T08:19:28.221Z,290.00
2023-03-22T08:20:28.229Z,286.00
2023-03-22T08:21:28.218Z,289.00
2023-03-22T08:22:28.207Z,297.00
2023-03-22T08:23:40.618Z,301.00
2023-03-22T08:24:28.197Z,302.00
2023-03-22T08:25:28.177Z,305.00
2023-03-22T08:26:28.123Z,308.00
2023-03-22T08:27:28.141Z,310.00
2023-03-22T08:28:28.110Z,313.00
2023-03-22T08:29:28.236Z,314.00
2023-03-22T08:30:28.069Z,318.00
2023-03-22T08:31:28.183Z,320.00
2023-03-22T08:32:28.045Z,319.00
2023-03-22T08:33:28.034Z,320.00
2023-03-22T08:34:28.033Z,320.00
2023-03-22T08:35:28.109Z,320.00
2023-03-22T08:36:27.967Z,318.00
2023-03-22T08:37:27.990Z,319.00
2023-03-22T08:38:27.981Z,320.00
2023-03-22T08:39:27.960Z,319.00
2023-03-22T08:40:28.022Z,318.00
2023-03-22T08:41:27.940Z,319.00
2023-03-22T08:42:27.922Z,319.00
2023-03-22T08:43:27.920Z,319.00
2023-03-22T08:44:27.899Z,321.00
2023-03-22T08:45:27.875Z,322.00
2023-03-22T08:46:27.862Z,322.00
2023-03-22T08:47:27.866Z,324.00
2023-03-22T08:48:27.871Z,324.00
2023-03-22T08:49:27.820Z,325.00
2023-03-22T08:50:27.807Z,324.00
2023-03-22T08:51:27.813Z,323.00
2023-03-22T08:52:27.777Z,323.00
2023-03-22T08:53:27.803Z,322.00
2023-03-22T08:54:27.757Z,322.00
2023-03-22T08:55:27.733Z,323.00
2023-03-22T08:56:27.739Z,325.00
2023-03-22T08:57:27.725Z,326.00
2023-03-22T08:58:27.674Z,327.00
2023-03-22T08:59:27.677Z,325.00
2023-03-22T09:00:39.142Z,325.00
2023-03-22T09:01:27.755Z,327.00
2023-03-22T09:02:27.692Z,326.00
2023-03-22T09:03:27.650Z,326.00
2023-03-22T09:04:27.783Z,323.00
2023-03-22T09:05:27.602Z,323.00
2023-03-22T09:06:27.598Z,323.00
2023-03-22T09:07:27.621Z,322.00
2023-03-22T09:08:27.572Z,324.00
2023-03-22T09:09:27.598Z,324.00
2023-03-22T09:10:27.545Z,325.00
2023-03-22T09:11:27.532Z,324.00
2023-03-22T09:12:27.506Z,326.00
2023-03-22T09:13:27.503Z,328.00
2023-03-22T09:14:27.506Z,327.00
2023-03-22T09:15:27.504Z,328.00
2023-03-22T09:16:27.505Z,327.00
2023-03-22T09:17:27.571Z,328.00
2023-03-22T09:18:27.469Z,329.00
2023-03-22T09:19:27.401Z,330.00
2023-03-22T09:20:27.416Z,334.00
2023-03-22T09:21:27.463Z,334.00
2023-03-22T09:22:27.376Z,334.00
2023-03-22T09:23:27.380Z,334.00
2023-03-22T09:24:27.341Z,334.00
2023-03-22T09:25:27.336Z,333.00
2023-03-22T09:26:27.379Z,331.00
2023-03-22T09:27:27.311Z,333.00
2023-03-22T09:28:27.340Z,332.00
2023-03-22T09:29:27.333Z,333.00
2023-03-22T09:30:27.358Z,334.00
2023-03-22T09:31:27.380Z,335.00
2023-03-22T09:32:27.287Z,336.00
2023-03-22T09:33:27.303Z,337.00
2023-03-22T09:34:27.232Z,340.00
2023-03-22T09:35:27.304Z,341.00
2023-03-22T09:36:27.206Z,342.00
2023-03-22T09:37:27.204Z,346.00
2023-03-22T09:38:27.177Z,348.00
2023-03-22T09:39:27.160Z,348.00
2023-03-22T09:40:27.156Z,347.00
2023-03-22T09:41:27.150Z,346.00
2023-03-22T09:42:27.184Z,345.00
2023-03-22T09:43:27.138Z,346.00
2023-03-22T09:44:27.091Z,346.00
2023-03-22T09:45:27.091Z,343.00
2023-03-22T09:46:27.129Z,348.00
2023-03-22T09:47:33.209Z,351.00
2023-03-22T09:48:27.123Z,354.00
2023-03-22T09:49:27.023Z,358.00
2023-03-22T09:50:27.038Z,359.00
2023-03-22T09:51:26.997Z,361.00
2023-03-22T09:52:27.076Z,362.00
2023-03-22T09:53:26.970Z,362.00
2023-03-22T09:54:26.966Z,363.00
2023-03-22T09:55:26.948Z,364.00
2023-03-22T09:56:26.963Z,367.00
2023-03-22T09:57:26.908Z,367.00
2023-03-22T09:58:27.028Z,366.00
2023-03-22T09:59:26.903Z,365.00
2023-03-22T10:00:26.977Z,363.00
2023-03-22T10:01:27.001Z,361.00
2023-03-22T10:02:26.911Z,363.00
2023-03-22T10:03:26.833Z,361.00
2023-03-22T10:04:26.931Z,358.00
2023-03-22T10:05:26.815Z,358.00
2023-03-22T10:06:28.293Z,354.00
2023-03-22T10:07:26.789Z,354.00
2023-03-22T10:08:26.776Z,352.00
2023-03-22T10:09:26.772Z,349.00
2023-03-22T10:10:26.751Z,347.00
2023-03-22T10:11:26.801Z,347.00
2023-03-22T10:12:26.933Z,346.00
2023-03-22T10:13:26.720Z,345.00
2023-03-22T10:14:26.691Z,346.00
2023-03-22T10:15:26.711Z,343.00
2023-03-22T10:16:26.809Z,340.00
2023-03-22T10:17:26.639Z,342.00
2023-03-22T10:18:26.652Z,344.00
2023-03-22T10:19:26.624Z,351.00
2023-03-22T10:20:26.620Z,355.00
2023-03-22T10:21:26.635Z,358.00
2023-03-22T10:22:26.617Z,357.00
2023-03-22T10:23:26.603Z,355.00
2023-03-22T10:24:26.638Z,352.00
2023-03-22T10:25:26.544Z,351.00
2023-03-22T10:26:26.540Z,349.00
2023-03-22T10:27:26.512Z,347.00
2023-03-22T10:28:26.518Z,347.00
2023-03-22T10:29:26.493Z,346.00
2023-03-22T10:30:26.509Z,348.00
2023-03-22T10:31:26.543Z,349.00
2023-03-22T10:32:26.462Z,349.00
2023-03-22T10:33:26.452Z,348.00
2023-03-22T10:34:26.434Z,347.00
2023-03-22T10:35:26.483Z,350.00
2023-03-22T10:36:26.409Z,350.00
2023-03-22T10:37:26.429Z,351.00
2023-03-22T10:38:26.384Z,351.00
2023-03-22T10:39:26.372Z,351.00
2023-03-22T10:40:26.361Z,352.00
2023-03-22T10:41:26.341Z,350.00
2023-03-22T10:42:26.331Z,349.00
2023-03-22T10:43:26.343Z,345.00
2023-03-22T10:44:26.314Z,345.00
2023-03-22T10:45:26.292Z,344.00
2023-03-22T10:46:26.316Z,341.00
2023-03-22T10:47:26.288Z,340.00
2023-03-22T10:48:26.317Z,338.00
2023-03-22T10:49:26.231Z,337.00
2023-03-22T10:50:26.248Z,337.00
2023-03-22T10:51:26.214Z,336.00
2023-03-22T10:52:27.226Z,339.00
2023-03-22T10:53:26.190Z,341.00
2023-03-22T10:54:26.303Z,345.00
2023-03-22T10:55:26.158Z,346.00
2023-03-22T10:56:26.159Z,345.00
2023-03-22T10:57:26.117Z,346.00
2023-03-22T10:58:26.112Z,347.00
2023-03-22T10:59:26.099Z,346.00
2023-03-22T11:00:26.122Z,345.00
2023-03-22T11:01:26.169Z,341.00
2023-03-22T11:02:26.251Z,341.00
2023-03-22T11:03:26.047Z,340.00
2023-03-22T11:04:26.060Z,341.00
2023-03-22T11:05:26.046Z,341.00
2023-03-22T11:06:26.038Z,340.00
2023-03-22T11:07:25.992Z,340.00
2023-03-22T11:08:25.988Z,339.00
2023-03-22T11:09:25.994Z,340.00
2023-03-22T11:10:26.026Z,340.00
2023-03-22T11:11:25.990Z,339.00
2023-03-22T11:12:25.944Z,340.00
2023-03-22T11:13:25.918Z,338.00
2023-03-22T11:14:26.021Z,337.00
2023-03-22T11:15:25.899Z,335.00
2023-03-22T11:16:25.951Z,333.00
2023-03-22T11:17:25.876Z,334.00
2023-03-22T11:18:25.845Z,332.00
2023-03-22T11:19:25.885Z,330.00
2023-03-22T11:20:25.940Z,332.00
2023-03-22T11:21:25.796Z,335.00
2023-03-22T11:22:25.826Z,335.00
2023-03-22T11:23:25.859Z,336.00
2023-03-22T11:24:25.795Z,332.00
2023-03-22T11:25:25.760Z,331.00
2023-03-22T11:27:25.722Z,330.00
2023-03-22T11:28:25.738Z,330.00
2023-03-22T11:29:25.728Z,331.00
2023-03-22T11:30:25.677Z,332.00
2023-03-22T11:31:25.705Z,334.00
2023-03-22T11:32:25.730Z,336.00
2023-03-22T11:33:25.633Z,337.00
2023-03-22T11:34:25.669Z,337.00
2023-03-22T11:35:25.644Z,335.00
2023-03-22T11:36:25.622Z,334.00
2023-03-22T11:37:25.608Z,332.00
2023-03-22T11:38:25.590Z,332.00
2023-03-22T11:39:25.644Z,332.00
2023-03-22T11:40:25.596Z,332.00
2023-03-22T11:41:25.559Z,332.00
2023-03-22T11:42:25.570Z,333.00
2023-03-22T11:43:25.505Z,331.00
2023-03-22T11:44:25.506Z,330.00
2023-03-22T11:45:25.521Z,329.00
2023-03-22T11:46:25.543Z,329.00
2023-03-22T11:47:25.503Z,330.00
2023-03-22T11:48:25.639Z,331.00
2023-03-22T11:49:25.451Z,330.00
2023-03-22T11:50:25.441Z,330.00
2023-03-22T11:51:25.415Z,328.00
2023-03-22T11:52:25.417Z,328.00
2023-03-22T11:53:25.412Z,328.00
2023-03-22T11:54:25.385Z,329.00
2023-03-22T11:55:25.399Z,331.00
2023-03-22T11:56:25.355Z,330.00
2023-03-22T11:57:25.339Z,331.00
2023-03-22T11:58:25.327Z,331.00
2023-03-22T11:59:25.306Z,330.00
2023-03-22T12:00:25.298Z,329.00
2023-03-22T12:01:25.279Z,330.00
2023-03-22T12:02:25.428Z,329.00
2023-03-22T12:03:25.401Z,332.00
2023-03-22T12:04:25.341Z,331.00
2023-03-22T12:05:25.225Z,330.00
2023-03-22T12:06:25.269Z,326.00
2023-03-22T12:07:25.217Z,325.00
2023-03-22T12:08:25.251Z,324.00
2023-03-22T12:09:25.210Z,326.00
2023-03-22T12:10:25.201Z,328.00
2023-03-22T12:11:25.178Z,329.00
2023-03-22T12:12:25.167Z,330.00
2023-03-22T12:13:25.166Z,331.00
2023-03-22T12:14:25.134Z,332.00
2023-03-22T12:15:25.132Z,331.00
2023-03-22T12:16:25.386Z,331.00
2023-03-22T12:17:25.156Z,333.00
2023-03-22T12:18:25.160Z,334.00
2023-03-22T12:19:25.079Z,335.00
2023-03-22T12:20:25.079Z,338.00
2023-03-22T12:21:25.072Z,339.00
2023-03-22T12:22:25.073Z,339.00
2023-03-22T12:23:25.093Z,342.00
2023-03-22T12:24:25.100Z,346.00
2023-03-22T12:25:24.982Z,351.00
2023-03-22T12:26:25.127Z,353.00
2023-03-22T12:27:24.969Z,344.00
2023-03-22T12:28:25.096Z,343.00
2023-03-22T12:29:24.974Z,343.00